Time;durP1;ratioP1;P1;durP2;ratioP2;P2;SDS_P1;SDS_P2;PMS_P1;PMS_P2;Temp;Humidity;BMP_temperature;BMP_pressure;BME280_temperature;BME280_humidity;BME280_pressure;Samples;Min_cycle;Max_cycle;Signal;HPM_P1;HPM_P2
2024/01/26 00:02:12;;;;;;;;;;;9.00;99.90;;;;;;5130956;27;19928;-33
2024/01/26 00:04:39;;;;;;;;;;;8.90;99.90;;;;;;5113993;28;20367;-33
2024/01/26 00:07:07;;;;;;;;;;;9.00;99.90;;;;;;5130794;27;19979;-33
2024/01/26 00:09:33;;;;;;;;;;;9.00;99.90;;;;;;5135518;27;19927;-33
2024/01/26 00:12:00;;;;;;;;;;;9.00;99.90;;;;;;5117205;27;19923;-33
2024/01/26 00:14:27;;;;;;;;;;;9.00;99.90;;;;;;5117728;27;19936;-34
2024/01/26 00:16:54;;;;;;;;;;;9.10;99.90;;;;;;5116660;27;19924;-32
2024/01/26 00:19:20;;;;;;;;;;;9.10;99.90;;;;;;5117516;27;19923;-33
2024/01/26 00:21:47;;;;;;;;;;;9.10;99.90;;;;;;5135429;27;19999;-33
2024/01/26 00:24:15;;;;;;;;;;;9.10;99.90;;;;;;5116981;27;19977;-33
2024/01/26 00:26:41;;;;;;;;;;;9.10;99.90;;;;;;5117320;27;19927;-32
2024/01/26 00:29:08;;;;;;;;;;;9.10;99.90;;;;;;5116626;27;20348;-32
2024/01/26 00:31:35;;;;;;;;;;;9.10;99.90;;;;;;5117216;27;19945;-33
2024/01/26 00:34:01;;;;;;;;;;;9.10;99.90;;;;;;5135288;27;19927;-33
2024/01/26 00:36:28;;;;;;;;;;;9.10;99.90;;;;;;5116917;27;19928;-32
2024/01/26 00:38:55;;;;;;;;;;;9.10;99.90;;;;;;5116859;27;19924;-31
2024/01/26 00:41:23;;;;;;;;;;;9.20;99.90;;;;;;5117416;27;19928;-33
2024/01/26 00:43:50;;;;;;;;;;;9.10;99.90;;;;;;5117400;27;19968;-34
2024/01/26 00:46:16;;;;;;;;;;;9.20;99.90;;;;;;5117493;27;19923;-33
2024/01/26 00:48:43;;;;;;;;;;;9.20;99.90;;;;;;5117212;27;20328;-33
2024/01/26 00:51:11;;;;;;;;;;;9.20;99.90;;;;;;5117299;27;20428;-34
2024/01/26 00:53:38;;;;;;;;;;;9.20;99.90;;;;;;5134916;27;19959;-34
2024/01/26 00:56:04;;;;;;;;;;;9.20;99.90;;;;;;5119162;27;20284;-33
2024/01/26 00:58:32;;;;;;;;;;;9.20;99.90;;;;;;5135089;27;20371;-33
2024/01/26 01:00:59;;;;;;;;;;;9.20;99.90;;;;;;5116268;27;19924;-34
2024/01/26 01:03:26;;;;;;;;;;;9.20;99.90;;;;;;5116813;27;19959;-33
2024/01/26 01:05:52;;;;;;;;;;;9.30;99.90;;;;;;5115052;27;19927;-33
2024/01/26 01:08:19;;;;;;;;;;;9.30;99.90;;;;;;5116895;27;19923;-32
2024/01/26 01:10:46;;;;;;;;;;;9.30;99.90;;;;;;5119056;27;19973;-33
2024/01/26 01:13:12;;;;;;;;;;;9.30;99.90;;;;;;5115634;27;20368;-33
2024/01/26 01:15:40;;;;;;;;;;;9.30;99.90;;;;;;5116810;27;19976;-34
2024/01/26 01:18:07;;;;;;;;;;;9.30;99.90;;;;;;5134452;27;20428;-33
2024/01/26 01:20:33;;;;;;;;;;;9.30;99.90;;;;;;5116482;27;19976;-33
2024/01/26 01:23:00;;;;;;;;;;;9.40;99.90;;;;;;5134675;27;19980;-32
2024/01/26 01:25:27;;;;;;;;;;;9.40;99.90;;;;;;5134267;27;19968;-34
2024/01/26 01:27:53;;;;;;;;;;;9.40;99.90;;;;;;5115355;27;19977;-33
2024/01/26 01:30:20;;;;;;;;;;;9.40;99.90;;;;;;5132953;27;20031;-34
2024/01/26 01:32:48;;;;;;;;;;;9.40;99.90;;;;;;5115711;27;20447;-33
2024/01/26 01:35:15;;;;;;;;;;;9.40;99.90;;;;;;5116266;27;19980;-33
2024/01/26 01:37:41;;;;;;;;;;;9.40;99.90;;;;;;5116340;27;19972;-33
2024/01/26 01:40:09;;;;;;;;;;;9.40;99.90;;;;;;5116361;27;19996;-34
2024/01/26 01:42:35;;;;;;;;;;;9.40;99.90;;;;;;5133365;27;20361;-33
2024/01/26 01:45:02;;;;;;;;;;;9.40;99.90;;;;;;5116183;27;19923;-33
2024/01/26 01:47:29;;;;;;;;;;;9.50;99.90;;;;;;5126207;27;19924;-33
2024/01/26 01:49:57;;;;;;;;;;;9.50;99.90;;;;;;5134284;27;19923;-34
2024/01/26 01:52:26;;;;;;;;;;;9.50;99.90;;;;;;5115933;27;19973;-33
2024/01/26 01:54:53;;;;;;;;;;;9.50;99.90;;;;;;5134197;27;19923;-33
2024/01/26 01:57:20;;;;;;;;;;;9.50;99.90;;;;;;5116264;27;19970;-33
2024/01/26 01:59:46;;;;;;;;;;;9.50;99.90;;;;;;5115800;27;19931;-34
2024/01/26 02:02:13;;;;;;;;;;;9.50;99.90;;;;;;5115107;27;19923;-32
2024/01/26 02:04:39;;;;;;;;;;;9.50;99.90;;;;;;5133174;27;19968;-31
2024/01/26 02:07:08;;;;;;;;;;;9.50;99.90;;;;;;5113491;27;20422;-33
2024/01/26 02:09:34;;;;;;;;;;;9.50;99.90;;;;;;5114206;27;20043;-32
2024/01/26 02:12:01;;;;;;;;;;;9.50;99.90;;;;;;5131140;27;19931;-33
2024/01/26 02:14:27;;;;;;;;;;;9.50;99.90;;;;;;5123428;27;19931;-32
2024/01/26 02:16:54;;;;;;;;;;;9.50;99.90;;;;;;5114367;27;19927;-33
2024/01/26 02:19:21;;;;;;;;;;;9.50;99.90;;;;;;5113801;27;20429;-33
2024/01/26 02:21:48;;;;;;;;;;;9.50;99.90;;;;;;5131915;27;19968;-32
2024/01/26 02:24:16;;;;;;;;;;;9.60;99.90;;;;;;5110731;27;19927;-33
2024/01/26 02:26:42;;;;;;;;;;;9.60;99.90;;;;;;5112990;27;19969;-32
2024/01/26 02:29:09;;;;;;;;;;;9.50;99.90;;;;;;5091694;28;20396;-32
2024/01/26 02:31:36;;;;;;;;;;;9.50;99.90;;;;;;5080381;28;19963;-32
2024/01/26 02:34:02;;;;;;;;;;;9.50;99.90;;;;;;5111691;28;19924;-33
2024/01/26 02:36:29;;;;;;;;;;;9.60;99.90;;;;;;5089980;28;19923;-33
2024/01/26 02:38:56;;;;;;;;;;;9.60;99.90;;;;;;5106109;28;19923;-33
2024/01/26 02:41:24;;;;;;;;;;;9.60;99.90;;;;;;5093773;28;20373;-34
2024/01/26 02:43:50;;;;;;;;;;;9.60;99.90;;;;;;5111787;28;19977;-34
2024/01/26 02:46:17;;;;;;;;;;;9.60;99.90;;;;;;5093904;28;20014;-33
2024/01/26 02:48:44;;;;;;;;;;;9.50;99.90;;;;;;5093658;28;19976;-32
2024/01/26 02:51:10;;;;;;;;;;;9.60;99.90;;;;;;5091957;28;19978;-32
2024/01/26 02:53:39;;;;;;;;;;;9.60;99.90;;;;;;5111741;28;19924;-32
2024/01/26 02:56:06;;;;;;;;;;;9.60;99.90;;;;;;5089182;28;20398;-32
2024/01/26 02:58:34;;;;;;;;;;;9.60;99.90;;;;;;5093358;28;19928;-32
2024/01/26 03:01:01;;;;;;;;;;;9.60;99.90;;;;;;5093899;28;19977;-33
2024/01/26 03:03:27;;;;;;;;;;;9.60;99.90;;;;;;5108216;28;19982;-32
2024/01/26 03:05:54;;;;;;;;;;;9.60;99.90;;;;;;5106639;28;19924;-32
2024/01/26 03:08:21;;;;;;;;;;;9.60;99.90;;;;;;5110416;28;19969;-32
2024/01/26 03:10:47;;;;;;;;;;;9.60;99.90;;;;;;5099749;28;19927;-33
2024/01/26 03:13:16;;;;;;;;;;;9.60;99.90;;;;;;5119635;28;19924;-33
2024/01/26 03:15:49;;;;;;;;;;;9.60;99.90;;;;;;5092174;28;19923;-33
2024/01/26 03:18:16;;;;;;;;;;;9.60;99.90;;;;;;5095615;28;20368;-37
2024/01/26 03:20:43;;;;;;;;;;;9.60;99.90;;;;;;5093170;28;19981;-31
2024/01/26 03:23:09;;;;;;;;;;;9.60;99.90;;;;;;5092756;28;20333;-32
2024/01/26 03:25:36;;;;;;;;;;;9.60;99.90;;;;;;5091315;28;20016;-33
2024/01/26 03:28:03;;;;;;;;;;;9.60;99.90;;;;;;5112324;28;19976;-34
2024/01/26 03:30:29;;;;;;;;;;;9.70;99.90;;;;;;5098202;28;19932;-32
2024/01/26 03:32:57;;;;;;;;;;;9.60;99.90;;;;;;5092526;28;20017;-31
2024/01/26 03:35:24;;;;;;;;;;;9.70;99.90;;;;;;5109106;28;19927;-33
2024/01/26 03:37:51;;;;;;;;;;;9.70;99.90;;;;;;5094348;28;19973;-32
2024/01/26 03:40:17;;;;;;;;;;;9.70;99.90;;;;;;5111496;28;19927;-33
2024/01/26 03:42:44;;;;;;;;;;;9.70;99.90;;;;;;5093571;28;19924;-32
2024/01/26 03:45:12;;;;;;;;;;;9.80;99.90;;;;;;5092732;28;20322;-32
2024/01/26 03:47:39;;;;;;;;;;;9.70;99.90;;;;;;5092962;28;19969;-34
2024/01/26 03:50:07;;;;;;;;;;;9.80;99.90;;;;;;5092973;28;19923;-32
2024/01/26 03:52:34;;;;;;;;;;;9.80;99.90;;;;;;5096885;28;19976;-34
2024/01/26 03:55:01;;;;;;;;;;;9.80;99.90;;;;;;5095722;28;19992;-32
2024/01/26 03:57:27;;;;;;;;;;;9.80;99.90;;;;;;5097862;28;19924;-32
2024/01/26 03:59:54;;;;;;;;;;;9.80;99.90;;;;;;5097340;28;20351;-32
2024/01/26 04:02:21;;;;;;;;;;;9.80;99.90;;;;;;5115746;28;19977;-34
2024/01/26 04:04:47;;;;;;;;;;;9.90;99.90;;;;;;5112917;27;20387;-32
2024/01/26 04:07:15;;;;;;;;;;;9.80;99.90;;;;;;5113979;28;19969;-32
2024/01/26 04:09:42;;;;;;;;;;;9.90;99.90;;;;;;5096928;28;19924;-32
2024/01/26 04:12:09;;;;;;;;;;;9.90;99.90;;;;;;5103747;28;19924;-33
2024/01/26 04:14:35;;;;;;;;;;;9.90;99.90;;;;;;5095336;28;19923;-33
2024/01/26 04:17:02;;;;;;;;;;;9.90;99.90;;;;;;5113589;28;20363;-32
2024/01/26 04:19:28;;;;;;;;;;;9.90;99.90;;;;;;5111779;27;19923;-33
2024/01/26 04:21:55;;;;;;;;;;;9.90;99.90;;;;;;5114306;28;20345;-32
2024/01/26 04:24:23;;;;;;;;;;;9.90;99.90;;;;;;5095300;28;19971;-33
2024/01/26 04:26:50;;;;;;;;;;;10.00;99.90;;;;;;5089020;28;19928;-34
2024/01/26 04:29:17;;;;;;;;;;;10.00;99.90;;;;;;5088395;28;19977;-33
2024/01/26 04:31:43;;;;;;;;;;;10.00;99.90;;;;;;5101960;28;19924;-34
2024/01/26 04:34:10;;;;;;;;;;;10.00;99.90;;;;;;5102901;27;19924;-34
2024/01/26 04:36:37;;;;;;;;;;;10.00;99.90;;;;;;5108991;28;19969;-32
2024/01/26 04:39:03;;;;;;;;;;;10.00;99.90;;;;;;5105918;28;19924;-32
2024/01/26 04:41:31;;;;;;;;;;;10.00;99.90;;;;;;5093026;28;20034;-31
2024/01/26 04:43:58;;;;;;;;;;;10.00;99.90;;;;;;5090258;28;20040;-32
2024/01/26 04:46:25;;;;;;;;;;;10.00;99.90;;;;;;5095873;28;19985;-32
2024/01/26 04:48:51;;;;;;;;;;;10.00;99.90;;;;;;5094220;28;19931;-33
2024/01/26 04:51:18;;;;;;;;;;;10.00;99.90;;;;;;5096436;28;20037;-32
2024/01/26 04:53:45;;;;;;;;;;;10.00;99.90;;;;;;5094213;28;19931;-33
2024/01/26 04:56:11;;;;;;;;;;;10.10;99.90;;;;;;5109956;28;19927;-32
2024/01/26 04:58:39;;;;;;;;;;;10.10;99.90;;;;;;5084857;28;19924;-33
2024/01/26 05:01:06;;;;;;;;;;;10.10;99.90;;;;;;5092513;28;19963;-32
2024/01/26 05:03:33;;;;;;;;;;;10.20;99.90;;;;;;5113309;28;19931;-33
2024/01/26 05:06:00;;;;;;;;;;;10.20;99.90;;;;;;5113519;28;19953;-32
2024/01/26 05:08:27;;;;;;;;;;;10.30;99.90;;;;;;5112901;28;20438;-33
2024/01/26 05:10:53;;;;;;;;;;;10.20;99.90;;;;;;5089677;28;20375;-32
2024/01/26 05:13:20;;;;;;;;;;;10.30;99.90;;;;;;5094250;28;19973;-33
2024/01/26 05:15:48;;;;;;;;;;;10.30;99.90;;;;;;5112047;27;19928;-33
2024/01/26 05:18:15;;;;;;;;;;;10.30;99.90;;;;;;5096207;28;20428;-32
2024/01/26 05:20:41;;;;;;;;;;;10.30;99.90;;;;;;5094549;28;19985;-34
2024/01/26 05:23:08;;;;;;;;;;;10.40;99.90;;;;;;5095712;28;19924;-34
2024/01/26 05:25:35;;;;;;;;;;;10.40;99.90;;;;;;5095594;28;20374;-33
2024/01/26 05:28:02;;;;;;;;;;;10.40;99.90;;;;;;5093821;28;19931;-32
2024/01/26 05:30:28;;;;;;;;;;;10.40;99.90;;;;;;5093258;28;19932;-32
2024/01/26 05:32:56;;;;;;;;;;;10.40;99.90;;;;;;5092707;28;19973;-35
2024/01/26 05:35:23;;;;;;;;;;;10.50;99.90;;;;;;5094523;28;19979;-32
2024/01/26 05:37:49;;;;;;;;;;;10.50;99.90;;;;;;5112374;28;19931;-35
2024/01/26 05:40:16;;;;;;;;;;;10.50;99.90;;;;;;5089499;28;19932;-33
2024/01/26 05:42:43;;;;;;;;;;;10.50;99.90;;;;;;5090836;28;20394;-34
2024/01/26 05:45:10;;;;;;;;;;;10.50;99.90;;;;;;5084061;28;19924;-32
2024/01/26 05:47:37;;;;;;;;;;;10.50;99.90;;;;;;5110706;28;19924;-33
2024/01/26 05:50:05;;;;;;;;;;;10.50;99.90;;;;;;5094777;28;19930;-33
2024/01/26 05:52:32;;;;;;;;;;;10.50;99.90;;;;;;5093972;28;19995;-32
2024/01/26 05:54:58;;;;;;;;;;;10.60;99.90;;;;;;5093136;28;20436;-32
2024/01/26 05:57:25;;;;;;;;;;;10.50;99.90;;;;;;5093876;28;19976;-32
2024/01/26 05:59:52;;;;;;;;;;;10.50;99.90;;;;;;5095117;28;19928;-32
2024/01/26 06:02:18;;;;;;;;;;;10.50;99.90;;;;;;5091477;28;19936;-34
2024/01/26 06:04:48;;;;;;;;;;;10.50;99.90;;;;;;5109846;27;19924;-32
2024/01/26 06:07:16;;;;;;;;;;;10.50;99.90;;;;;;5090921;28;19931;-31
2024/01/26 06:09:42;;;;;;;;;;;10.50;99.90;;;;;;5089594;28;20021;-34
2024/01/26 06:12:09;;;;;;;;;;;10.50;99.90;;;;;;5109018;28;20371;-34
2024/01/26 06:14:36;;;;;;;;;;;10.50;99.90;;;;;;5091003;28;19923;-34
2024/01/26 06:17:03;;;;;;;;;;;10.50;99.90;;;;;;5088929;28;19924;-33
2024/01/26 06:19:29;;;;;;;;;;;10.50;99.90;;;;;;5090246;28;19931;-32
2024/01/26 06:21:56;;;;;;;;;;;10.50;99.90;;;;;;5108533;28;20290;-32
2024/01/26 06:24:24;;;;;;;;;;;10.50;99.90;;;;;;5079520;28;19932;-30
2024/01/26 06:26:51;;;;;;;;;;;10.50;99.90;;;;;;5092501;28;19927;-33
2024/01/26 06:29:17;;;;;;;;;;;10.50;99.90;;;;;;5111529;28;19928;-32
2024/01/26 06:31:44;;;;;;;;;;;10.50;99.90;;;;;;5108933;28;19976;-33
2024/01/26 06:34:10;;;;;;;;;;;10.50;99.90;;;;;;5088772;28;19924;-33
2024/01/26 06:36:37;;;;;;;;;;;10.50;99.90;;;;;;5103636;28;19924;-33
2024/01/26 06:39:04;;;;;;;;;;;10.50;99.90;;;;;;5107902;28;19977;-33
2024/01/26 06:41:32;;;;;;;;;;;10.50;99.90;;;;;;5089442;28;20399;-34
2024/01/26 06:43:58;;;;;;;;;;;10.50;99.90;;;;;;5082445;28;19931;-34
2024/01/26 06:46:25;;;;;;;;;;;10.50;99.90;;;;;;5109891;28;19993;-33
2024/01/26 06:48:52;;;;;;;;;;;10.50;99.90;;;;;;5092602;28;20372;-34
2024/01/26 06:51:18;;;;;;;;;;;10.60;99.90;;;;;;5091118;28;19928;-33
2024/01/26 06:53:45;;;;;;;;;;;10.60;99.90;;;;;;5098548;28;19931;-33
2024/01/26 06:56:12;;;;;;;;;;;10.60;99.90;;;;;;5101818;28;20367;-32
2024/01/26 06:58:40;;;;;;;;;;;10.60;99.90;;;;;;5109468;28;19959;-31
2024/01/26 07:01:05;;;;;;;;;;;10.60;99.90;;;;;;5092142;28;19977;-33
2024/01/26 07:03:32;;;;;;;;;;;10.60;99.90;;;;;;5092707;28;19924;-33
2024/01/26 07:05:59;;;;;;;;;;;10.60;99.90;;;;;;5111005;28;20337;-32
2024/01/26 07:08:25;;;;;;;;;;;10.70;99.90;;;;;;5110490;28;20382;-33
2024/01/26 07:10:52;;;;;;;;;;;10.70;99.90;;;;;;5101815;28;19992;-32
2024/01/26 07:13:19;;;;;;;;;;;10.70;99.90;;;;;;5098398;28;19924;-33
2024/01/26 07:15:47;;;;;;;;;;;10.70;99.90;;;;;;5091273;28;19924;-32
2024/01/26 07:18:13;;;;;;;;;;;10.70;99.90;;;;;;5110085;28;20394;-32
2024/01/26 07:20:40;;;;;;;;;;;10.70;99.90;;;;;;5092249;28;19993;-31
2024/01/26 07:23:07;;;;;;;;;;;10.70;99.90;;;;;;5092247;28;20436;-32
2024/01/26 07:25:33;;;;;;;;;;;10.70;99.90;;;;;;5091631;28;19961;-32
2024/01/26 07:28:00;;;;;;;;;;;10.70;99.90;;;;;;5094829;28;19924;-33
2024/01/26 07:30:26;;;;;;;;;;;10.80;99.90;;;;;;5096824;28;19959;-31
2024/01/26 07:32:54;;;;;;;;;;;10.70;99.90;;;;;;5096909;28;19927;-33
2024/01/26 07:35:21;;;;;;;;;;;10.80;99.90;;;;;;5095068;28;19977;-33
2024/01/26 07:37:48;;;;;;;;;;;10.80;99.90;;;;;;5095432;28;20347;-32
2024/01/26 07:40:14;;;;;;;;;;;10.80;99.90;;;;;;5092814;28;19927;-33
2024/01/26 07:42:41;;;;;;;;;;;10.70;99.90;;;;;;5095274;28;19932;-32
2024/01/26 07:45:08;;;;;;;;;;;10.70;99.90;;;;;;5095126;28;19931;-32
2024/01/26 07:47:35;;;;;;;;;;;10.70;99.90;;;;;;5113612;28;20404;-32
2024/01/26 07:50:04;;;;;;;;;;;10.70;99.90;;;;;;5094358;28;19924;-32
2024/01/26 07:52:30;;;;;;;;;;;10.70;99.90;;;;;;5094799;28;19923;-34
2024/01/26 07:54:57;;;;;;;;;;;10.80;99.90;;;;;;5112257;28;19927;-32
2024/01/26 07:57:25;;;;;;;;;;;10.80;99.90;;;;;;5112093;28;19932;-34
2024/01/26 07:59:52;;;;;;;;;;;10.80;99.90;;;;;;5096704;27;20008;-33
2024/01/26 08:02:18;;;;;;;;;;;10.80;99.90;;;;;;5123243;27;19932;-33
2024/01/26 08:04:45;;;;;;;;;;;10.80;99.90;;;;;;5113191;28;20351;-33
2024/01/26 08:07:15;;;;;;;;;;;10.80;99.90;;;;;;5093666;28;19960;-32
2024/01/26 08:09:42;;;;;;;;;;;10.80;99.90;;;;;;5086869;28;19928;-33
2024/01/26 08:12:09;;;;;;;;;;;10.80;99.90;;;;;;5093047;28;19939;-32
2024/01/26 08:14:35;;;;;;;;;;;10.80;99.90;;;;;;5093236;28;19927;-34
2024/01/26 08:17:03;;;;;;;;;;;10.80;99.90;;;;;;5112106;28;19932;-34
2024/01/26 08:19:29;;;;;;;;;;;10.80;99.90;;;;;;5111236;28;19924;-32
2024/01/26 08:21:56;;;;;;;;;;;10.80;99.90;;;;;;5093792;28;19977;-33
2024/01/26 08:24:24;;;;;;;;;;;10.80;99.90;;;;;;5112067;28;19977;-33
2024/01/26 08:26:50;;;;;;;;;;;10.80;99.90;;;;;;5093316;28;19977;-31
2024/01/26 08:29:21;;;;;;;;;;;10.90;99.90;;;;;;5112336;28;19973;-31
2024/01/26 08:31:48;;;;;;;;;;;10.80;99.90;;;;;;5088166;28;19923;-31
2024/01/26 08:34:15;;;;;;;;;;;10.90;99.90;;;;;;5094831;28;19930;-35
2024/01/26 08:36:41;;;;;;;;;;;10.90;99.90;;;;;;5109944;28;20024;-33
2024/01/26 08:39:11;;;;;;;;;;;10.90;99.90;;;;;;5110848;27;19962;-33
2024/01/26 08:41:39;;;;;;;;;;;10.90;99.90;;;;;;5084832;28;19928;-32
2024/01/26 08:44:06;;;;;;;;;;;10.90;99.90;;;;;;5113237;28;19924;-33
2024/01/26 08:46:33;;;;;;;;;;;10.90;99.90;;;;;;5093346;28;19950;-33
2024/01/26 08:49:00;;;;;;;;;;;10.90;99.90;;;;;;5094878;28;19994;-33
2024/01/26 08:51:29;;;;;;;;;;;10.90;99.90;;;;;;5095119;28;19924;-33
2024/01/26 08:53:55;;;;;;;;;;;11.00;99.90;;;;;;5103252;27;20334;-33
2024/01/26 08:56:22;;;;;;;;;;;11.00;99.90;;;;;;5094393;28;20375;-33
2024/01/26 08:58:50;;;;;;;;;;;11.00;99.90;;;;;;5093791;28;20040;-32
2024/01/26 09:01:17;;;;;;;;;;;11.00;99.90;;;;;;5088058;28;19932;-30
2024/01/26 09:03:43;;;;;;;;;;;11.00;99.90;;;;;;5113546;28;19928;-34
2024/01/26 09:06:10;;;;;;;;;;;11.00;99.90;;;;;;5095624;28;19981;-31
2024/01/26 09:08:37;;;;;;;;;;;11.00;99.90;;;;;;5093018;28;19976;-33
2024/01/26 09:11:04;;;;;;;;;;;11.00;99.90;;;;;;5110183;28;20813;-32
2024/01/26 09:13:31;;;;;;;;;;;11.10;99.90;;;;;;5091547;28;19928;-32
2024/01/26 09:15:59;;;;;;;;;;;11.10;99.90;;;;;;5091999;28;19977;-31
2024/01/26 09:18:25;;;;;;;;;;;11.10;99.90;;;;;;5113429;28;19923;-33
2024/01/26 09:20:52;;;;;;;;;;;11.10;99.90;;;;;;5111033;28;19977;-31
2024/01/26 09:23:19;;;;;;;;;;;11.10;99.90;;;;;;5111461;28;20372;-33
2024/01/26 09:25:46;;;;;;;;;;;11.10;99.90;;;;;;5092009;28;20010;-34
2024/01/26 09:28:13;;;;;;;;;;;11.00;99.90;;;;;;5092721;28;19930;-32
2024/01/26 09:30:40;;;;;;;;;;;10.90;99.90;;;;;;5109859;28;20119;-35
2024/01/26 09:33:08;;;;;;;;;;;10.60;99.90;;;;;;5093799;28;19927;-32
2024/01/26 09:35:34;;;;;;;;;;;10.40;99.90;;;;;;5111852;28;19989;-31
2024/01/26 09:38:01;;;;;;;;;;;10.10;99.90;;;;;;5111017;28;19976;-31
2024/01/26 09:40:28;;;;;;;;;;;10.00;99.90;;;;;;5092029;28;19934;-32
2024/01/26 09:42:54;;;;;;;;;;;9.80;99.90;;;;;;5092967;28;19930;-32
2024/01/26 09:45:22;;;;;;;;;;;9.70;99.90;;;;;;5109494;28;20368;-34
2024/01/26 09:47:50;;;;;;;;;;;9.70;99.90;;;;;;5087298;28;20248;-32
2024/01/26 09:50:18;;;;;;;;;;;9.60;99.90;;;;;;5091543;28;19932;-35
2024/01/26 09:52:45;;;;;;;;;;;9.60;99.90;;;;;;5088128;28;19924;-32
2024/01/26 09:55:11;;;;;;;;;;;9.60;99.90;;;;;;5111278;28;19928;-33
2024/01/26 09:57:38;;;;;;;;;;;9.60;99.90;;;;;;5118722;27;19927;-31
2024/01/26 10:00:08;;;;;;;;;;;9.50;99.90;;;;;;5092583;28;20452;-31
2024/01/26 10:02:34;;;;;;;;;;;9.50;99.90;;;;;;5091587;28;19932;-31
2024/01/26 10:05:01;;;;;;;;;;;9.40;99.90;;;;;;5092284;28;19923;-31
2024/01/26 10:07:29;;;;;;;;;;;9.40;99.90;;;;;;5092494;28;19924;-31
2024/01/26 10:09:56;;;;;;;;;;;9.30;99.90;;;;;;5110696;28;19930;-31
2024/01/26 10:12:23;;;;;;;;;;;9.30;99.90;;;;;;5090072;28;19985;-33
2024/01/26 10:14:50;;;;;;;;;;;9.30;99.90;;;;;;5108351;28;19971;-33
2024/01/26 10:17:17;;;;;;;;;;;9.20;99.90;;;;;;5087937;28;19924;-31
2024/01/26 10:19:43;;;;;;;;;;;9.20;99.90;;;;;;5086186;28;20376;-32
2024/01/26 10:22:10;;;;;;;;;;;9.10;99.90;;;;;;5106943;28;20426;-31
2024/01/26 10:24:38;;;;;;;;;;;9.10;99.90;;;;;;5110359;28;19931;-32
2024/01/26 10:27:05;;;;;;;;;;;9.10;99.90;;;;;;5109300;28;20047;-31
2024/01/26 10:29:32;;;;;;;;;;;9.00;99.90;;;;;;5112390;27;19976;-31
2024/01/26 10:31:59;;;;;;;;;;;9.00;99.90;;;;;;5112070;27;20043;-34
2024/01/26 10:34:26;;;;;;;;;;;9.00;99.90;;;;;;5125692;27;20336;-32
2024/01/26 10:36:56;;;;;;;;;;;8.90;99.90;;;;;;5107810;27;19938;-32
2024/01/26 10:39:24;;;;;;;;;;;8.90;99.90;;;;;;5113680;27;19924;-32
2024/01/26 10:41:52;;;;;;;;;;;8.90;99.90;;;;;;5110762;27;20310;-32
2024/01/26 10:44:19;;;;;;;;;;;8.80;99.90;;;;;;5110644;27;19931;-31
2024/01/26 10:46:46;;;;;;;;;;;8.80;99.90;;;;;;5110337;28;19976;-32
2024/01/26 10:49:12;;;;;;;;;;;8.80;99.90;;;;;;5127961;27;20371;-31
2024/01/26 10:51:40;;;;;;;;;;;8.80;99.90;;;;;;5112357;27;19932;-30
2024/01/26 10:54:09;;;;;;;;;;;8.80;99.90;;;;;;5109256;28;20019;-31
2024/01/26 10:56:35;;;;;;;;;;;8.80;99.90;;;;;;5111619;28;19923;-31
2024/01/26 10:59:03;;;;;;;;;;;8.80;99.90;;;;;;5110122;28;19978;-31
2024/01/26 11:01:30;;;;;;;;;;;8.70;99.90;;;;;;5109819;28;19984;-31
2024/01/26 11:03:57;;;;;;;;;;;8.70;99.90;;;;;;5109055;28;19932;-31
2024/01/26 11:06:24;;;;;;;;;;;8.80;99.90;;;;;;5095389;28;20287;-33
2024/01/26 11:08:50;;;;;;;;;;;8.70;99.90;;;;;;5101384;28;20014;-31
2024/01/26 11:11:20;;;;;;;;;;;8.70;99.90;;;;;;5108332;28;19981;-31
2024/01/26 11:13:52;;;;;;;;;;;8.80;99.90;;;;;;5109797;28;19924;-30
2024/01/26 11:16:23;;;;;;;;;;;8.70;99.90;;;;;;5109483;28;19923;-32
2024/01/26 11:18:54;;;;;;;;;;;8.80;99.90;;;;;;5110324;28;20436;-32
2024/01/26 11:21:20;;;;;;;;;;;8.70;99.90;;;;;;5130480;28;19931;-33
2024/01/26 11:23:47;;;;;;;;;;;8.70;99.90;;;;;;5110918;28;19923;-32
2024/01/26 11:26:14;;;;;;;;;;;8.70;99.90;;;;;;5130441;28;19949;-33
2024/01/26 11:28:41;;;;;;;;;;;8.60;99.90;;;;;;5106786;28;20413;-32
2024/01/26 11:31:08;;;;;;;;;;;8.60;99.90;;;;;;5106549;28;20371;-31
2024/01/26 11:33:37;;;;;;;;;;;8.60;99.90;;;;;;5106953;28;20010;-31
2024/01/26 11:36:04;;;;;;;;;;;8.60;99.90;;;;;;5105773;28;19968;-31
2024/01/26 11:38:31;;;;;;;;;;;8.50;99.90;;;;;;5111925;28;19927;-31
2024/01/26 11:40:58;;;;;;;;;;;8.50;99.90;;;;;;5105885;28;19973;-34
2024/01/26 11:43:25;;;;;;;;;;;8.50;99.90;;;;;;5099816;28;19932;-32
2024/01/26 11:45:52;;;;;;;;;;;8.50;99.90;;;;;;5108191;28;20283;-30
2024/01/26 11:48:20;;;;;;;;;;;8.50;99.90;;;;;;5109231;28;19969;-35
2024/01/26 11:50:48;;;;;;;;;;;8.40;99.90;;;;;;5110026;28;19924;-31
2024/01/26 11:53:15;;;;;;;;;;;8.40;99.90;;;;;;5109590;28;19934;-32
2024/01/26 11:55:42;;;;;;;;;;;8.50;99.90;;;;;;5107832;28;19923;-31
2024/01/26 11:58:08;;;;;;;;;;;8.40;99.90;;;;;;5107239;28;19977;-31
2024/01/26 12:00:36;;;;;;;;;;;8.40;99.90;;;;;;5108810;28;20429;-30
2024/01/26 12:03:03;;;;;;;;;;;8.30;99.90;;;;;;5109175;28;19924;-31
2024/01/26 12:05:30;;;;;;;;;;;8.30;99.90;;;;;;5109778;28;20369;-32
2024/01/26 12:07:58;;;;;;;;;;;8.30;99.90;;;;;;5108657;28;19931;-32
2024/01/26 12:10:25;;;;;;;;;;;8.30;99.90;;;;;;5109917;28;19923;-32
2024/01/26 12:12:51;;;;;;;;;;;8.30;99.90;;;;;;5110088;28;19924;-32
2024/01/26 12:15:18;;;;;;;;;;;8.30;99.90;;;;;;5104134;27;19927;-32
2024/01/26 12:17:47;;;;;;;;;;;8.30;99.90;;;;;;5121545;27;19924;-32
2024/01/26 12:20:14;;;;;;;;;;;8.20;99.90;;;;;;5112096;28;19928;-31
2024/01/26 12:22:43;;;;;;;;;;;8.20;99.90;;;;;;5112343;28;20345;-32
2024/01/26 12:25:13;;;;;;;;;;;8.20;99.90;;;;;;5109637;28;19927;-31
2024/01/26 12:27:40;;;;;;;;;;;8.20;99.90;;;;;;5107632;28;20356;-32
2024/01/26 12:30:08;;;;;;;;;;;8.10;99.90;;;;;;5091344;28;19969;-34
2024/01/26 12:32:36;;;;;;;;;;;8.20;99.90;;;;;;5093712;28;19924;-33
2024/01/26 12:35:03;;;;;;;;;;;8.10;99.90;;;;;;5093583;28;19923;-32
2024/01/26 12:37:29;;;;;;;;;;;8.10;99.90;;;;;;5092531;28;20390;-32
2024/01/26 12:39:56;;;;;;;;;;;8.20;99.90;;;;;;5113016;28;19969;-33
2024/01/26 12:42:24;;;;;;;;;;;8.10;99.90;;;;;;5092995;28;19996;-32
2024/01/26 12:44:51;;;;;;;;;;;8.10;99.90;;;;;;5090074;28;19924;-32
2024/01/26 12:47:17;;;;;;;;;;;8.10;99.90;;;;;;5095337;28;20344;-33
2024/01/26 12:49:44;;;;;;;;;;;8.10;99.90;;;;;;5093035;28;20015;-33
2024/01/26 12:52:10;;;;;;;;;;;8.10;99.90;;;;;;5094650;28;19977;-33
2024/01/26 12:54:37;;;;;;;;;;;8.10;99.90;;;;;;5088484;28;19967;-32
2024/01/26 12:57:04;;;;;;;;;;;8.10;99.90;;;;;;5090479;28;19923;-32
2024/01/26 12:59:32;;;;;;;;;;;8.00;99.90;;;;;;5092720;28;19931;-33
2024/01/26 13:01:59;;;;;;;;;;;8.00;99.90;;;;;;5094837;28;19979;-32
2024/01/26 13:04:26;;;;;;;;;;;8.00;99.90;;;;;;5094178;28;19969;-33
2024/01/26 13:06:52;;;;;;;;;;;7.90;99.90;;;;;;5111562;28;19928;-33
2024/01/26 13:09:19;;;;;;;;;;;7.90;99.90;;;;;;5110297;28;19927;-33
2024/01/26 13:11:46;;;;;;;;;;;7.80;99.90;;;;;;5093526;28;19977;-32
2024/01/26 13:14:13;;;;;;;;;;;7.70;99.90;;;;;;5110723;28;20436;-34
2024/01/26 13:16:41;;;;;;;;;;;7.70;99.90;;;;;;5093971;28;19967;-32
2024/01/26 13:19:07;;;;;;;;;;;7.60;99.90;;;;;;5108201;28;20362;-32
2024/01/26 13:21:34;;;;;;;;;;;7.60;99.90;;;;;;5090688;28;20268;-33
2024/01/26 13:24:01;;;;;;;;;;;7.70;99.90;;;;;;5092180;28;19947;-34
2024/01/26 13:26:27;;;;;;;;;;;7.70;99.90;;;;;;5112281;28;20444;-34
2024/01/26 13:28:54;;;;;;;;;;;7.80;99.90;;;;;;5094665;28;19924;-32
2024/01/26 13:31:20;;;;;;;;;;;7.70;99.90;;;;;;5088363;28;19931;-32
2024/01/26 13:33:48;;;;;;;;;;;7.70;99.90;;;;;;5095987;28;19976;-32
2024/01/26 13:36:15;;;;;;;;;;;7.70;99.90;;;;;;5111461;28;19923;-32
2024/01/26 13:38:42;;;;;;;;;;;7.70;99.90;;;;;;5089215;28;19969;-33
2024/01/26 13:41:08;;;;;;;;;;;7.70;99.90;;;;;;5092128;28;20048;-33
2024/01/26 13:43:35;;;;;;;;;;;7.70;99.90;;;;;;5112992;28;19984;-33
2024/01/26 13:46:02;;;;;;;;;;;7.70;99.90;;;;;;5092651;28;19984;-32
2024/01/26 13:48:28;;;;;;;;;;;7.80;99.90;;;;;;5087036;28;19928;-32
2024/01/26 13:50:58;;;;;;;;;;;7.80;99.90;;;;;;5092522;27;19977;-33
2024/01/26 13:53:25;;;;;;;;;;;8.00;99.90;;;;;;5095683;28;19930;-33
2024/01/26 13:55:52;;;;;;;;;;;7.90;99.90;;;;;;5112434;28;19928;-33
2024/01/26 13:58:18;;;;;;;;;;;7.90;99.90;;;;;;5094376;28;19966;-32
2024/01/26 14:00:45;;;;;;;;;;;7.90;99.90;;;;;;5095574;28;20364;-33
2024/01/26 14:03:12;;;;;;;;;;;7.80;99.90;;;;;;5091035;28;19961;-33
2024/01/26 14:05:39;;;;;;;;;;;7.80;99.90;;;;;;5112574;28;20040;-32
2024/01/26 14:08:07;;;;;;;;;;;7.80;99.90;;;;;;5091552;28;20299;-33
2024/01/26 14:10:34;;;;;;;;;;;7.70;99.90;;;;;;5091045;28;19924;-33
2024/01/26 14:13:01;;;;;;;;;;;7.70;99.90;;;;;;5090673;28;19924;-34
2024/01/26 14:15:29;;;;;;;;;;;7.70;99.90;;;;;;5092225;28;19924;-33
2024/01/26 14:17:55;;;;;;;;;;;7.80;99.90;;;;;;5109435;28;20337;-33
2024/01/26 14:20:22;;;;;;;;;;;7.80;99.90;;;;;;5090428;28;19931;-32
2024/01/26 14:22:50;;;;;;;;;;;7.80;99.90;;;;;;5084171;28;19928;-32
2024/01/26 14:25:20;;;;;;;;;;;7.80;99.90;;;;;;5091799;28;19997;-33